createdAt,value
2018-09-12T00:01:40.420Z,3.95
2018-09-12T00:04:51.818Z,3.55
2018-09-12T00:08:03.079Z,3.10
2018-09-12T00:11:15.068Z,4.12
2018-09-12T00:14:45.843Z,3.08
2018-09-12T00:17:57.838Z,3.00
2018-09-12T00:21:08.997Z,2.90
2018-09-12T00:24:20.874Z,3.58
2018-09-12T00:27:31.891Z,2.92
2018-09-12T00:30:43.179Z,3.70
2018-09-12T00:33:54.343Z,4.12
2018-09-12T00:37:05.752Z,3.70
2018-09-12T00:40:17.067Z,3.55
2018-09-12T00:43:28.146Z,3.80
2018-09-12T00:46:39.366Z,3.87
2018-09-12T00:49:50.438Z,4.20
2018-09-12T00:53:01.681Z,2.95
2018-09-12T00:56:12.895Z,4.15
2018-09-12T00:59:24.098Z,3.92
2018-09-12T01:02:35.641Z,3.70
2018-09-12T01:05:47.250Z,4.55
2018-09-12T01:08:58.870Z,5.70
2018-09-12T01:12:10.055Z,4.10
2018-09-12T01:15:21.717Z,4.40
2018-09-12T01:18:32.995Z,4.00
2018-09-12T01:21:44.302Z,3.92
2018-09-12T01:24:55.347Z,3.17
2018-09-12T01:28:07.029Z,3.65
2018-09-12T01:31:18.956Z,5.20
2018-09-12T01:34:31.219Z,4.00
2018-09-12T01:37:42.794Z,4.90
2018-09-12T01:40:54.124Z,4.20
2018-09-12T01:44:06.022Z,3.65
2018-09-12T01:47:17.463Z,2.95
2018-09-12T01:50:28.730Z,3.42
2018-09-12T01:53:39.942Z,4.40
2018-09-12T01:56:51.280Z,4.22
2018-09-12T02:00:02.818Z,4.47
2018-09-12T02:03:14.098Z,3.98
2018-09-12T02:06:26.700Z,4.58
2018-09-12T02:09:38.285Z,3.75
2018-09-12T02:12:49.452Z,4.00
2018-09-12T02:16:00.860Z,4.17
2018-09-12T02:19:12.757Z,5.25
2018-09-12T02:22:24.159Z,4.00
2018-09-12T02:25:35.784Z,4.00
2018-09-12T02:28:46.883Z,3.55
2018-09-12T02:31:57.897Z,3.90
2018-09-12T02:35:09.413Z,4.62
2018-09-12T02:38:21.075Z,3.08
2018-09-12T02:41:32.126Z,4.72
2018-09-12T02:44:43.477Z,5.60
2018-09-12T02:47:54.534Z,4.03
2018-09-12T02:51:06.451Z,4.17
2018-09-12T02:54:18.372Z,3.52
2018-09-12T02:57:29.476Z,3.45
2018-09-12T03:00:40.837Z,4.55
2018-09-12T03:03:52.171Z,3.92
2018-09-12T03:07:03.120Z,3.15
2018-09-12T03:10:14.594Z,3.70
2018-09-12T03:13:25.761Z,3.87
2018-09-12T03:16:39.031Z,4.85
2018-09-12T03:19:50.417Z,2.85
2018-09-12T03:23:02.186Z,4.20
2018-09-12T03:26:13.993Z,3.00
2018-09-12T03:29:25.131Z,4.40
2018-09-12T03:32:37.098Z,3.98
2018-09-12T03:35:49.325Z,3.37
2018-09-12T03:39:00.986Z,2.72
2018-09-12T03:42:12.486Z,5.03
2018-09-12T03:45:24.093Z,3.62
2018-09-12T03:48:36.115Z,6.17
2018-09-12T03:51:47.391Z,3.95
2018-09-12T03:54:58.503Z,3.98
2018-09-12T03:58:09.761Z,3.25
2018-09-12T04:01:20.971Z,3.40
2018-09-12T04:04:32.288Z,3.95
2018-09-12T04:07:44.157Z,4.35
2018-09-12T04:10:55.499Z,3.37
2018-09-12T04:14:06.852Z,4.50
2018-09-12T04:17:18.199Z,2.90
2018-09-12T04:20:30.095Z,2.87
2018-09-12T04:23:41.154Z,4.80
2018-09-12T04:26:52.363Z,3.67
2018-09-12T04:30:03.953Z,4.37
2018-09-12T04:33:15.000Z,5.10
2018-09-12T04:36:25.954Z,3.50
2018-09-12T04:39:37.443Z,3.30
2018-09-12T04:42:49.032Z,4.55
2018-09-12T04:46:01.223Z,4.90
2018-09-12T04:49:12.504Z,4.37
2018-09-12T04:52:23.918Z,3.83
2018-09-12T04:55:35.082Z,3.40
2018-09-12T04:58:46.463Z,3.60
2018-09-12T05:01:57.445Z,4.90
2018-09-12T05:05:08.748Z,4.20
2018-09-12T05:08:19.976Z,4.30
2018-09-12T05:11:31.898Z,4.58
2018-09-12T05:14:49.704Z,3.47
2018-09-12T05:18:01.810Z,5.28
2018-09-12T05:21:13.009Z,5.08
2018-09-12T05:24:24.857Z,3.08
2018-09-12T05:27:35.914Z,3.70
2018-09-12T05:30:47.218Z,3.80
2018-09-12T05:33:58.908Z,3.50
2018-09-12T05:37:10.416Z,3.47
2018-09-12T05:40:21.780Z,4.05
2018-09-12T05:43:33.394Z,4.03
2018-09-12T05:46:45.379Z,4.25
2018-09-12T05:49:56.487Z,4.45
2018-09-12T05:53:08.381Z,4.80
2018-09-12T05:56:19.728Z,3.85
2018-09-12T05:59:30.754Z,3.00
2018-09-12T06:02:42.686Z,4.75
2018-09-12T06:05:53.642Z,3.27
2018-09-12T06:09:08.495Z,4.83
2018-09-12T06:12:19.453Z,4.80
2018-09-12T06:15:30.724Z,4.20
2018-09-12T06:18:42.240Z,3.87
2018-09-12T06:21:53.972Z,4.30
2018-09-12T06:25:05.987Z,7.33
2018-09-12T06:28:16.951Z,3.45
2018-09-12T06:31:28.110Z,5.85
2018-09-12T06:34:39.234Z,4.70
2018-09-12T06:37:50.513Z,3.55
2018-09-12T06:41:02.676Z,3.65
2018-09-12T06:44:14.588Z,4.40
2018-09-12T06:47:25.675Z,3.60
2018-09-12T06:50:36.984Z,3.87
2018-09-12T06:53:48.330Z,3.80
2018-09-12T06:57:00.300Z,3.62
2018-09-12T07:00:12.535Z,3.72
2018-09-12T07:03:24.843Z,3.80
2018-09-12T07:06:36.152Z,4.58
2018-09-12T07:09:47.508Z,3.27
2018-09-12T07:12:58.778Z,4.47
2018-09-12T07:16:10.260Z,3.98
2018-09-12T07:19:22.534Z,3.15
2018-09-12T07:22:34.015Z,3.25
2018-09-12T07:25:45.183Z,3.60
2018-09-12T07:28:56.465Z,4.47
2018-09-12T07:32:07.703Z,4.00
2018-09-12T07:35:19.623Z,5.08
2018-09-12T07:38:30.956Z,3.70
2018-09-12T07:41:42.329Z,4.72
2018-09-12T07:44:53.789Z,4.58
2018-09-12T07:48:05.117Z,4.90
2018-09-12T07:51:17.329Z,4.45
2018-09-12T07:54:28.776Z,3.90
2018-09-12T07:57:40.264Z,4.47
2018-09-12T08:00:51.800Z,3.75
2018-09-12T08:04:03.398Z,2.77
2018-09-12T08:07:14.907Z,3.42
2018-09-12T08:10:26.365Z,3.10
2018-09-12T08:13:37.680Z,4.33
2018-09-12T08:16:50.661Z,4.30
2018-09-12T08:20:02.268Z,3.30
2018-09-12T08:23:13.268Z,4.77
2018-09-12T08:26:24.439Z,3.83
2018-09-12T08:29:35.296Z,4.23
2018-09-12T08:32:46.512Z,3.70
2018-09-12T08:35:58.121Z,3.30
2018-09-12T08:39:10.632Z,3.37
2018-09-12T08:42:22.393Z,3.00
2018-09-12T08:45:33.227Z,3.00
2018-09-12T08:48:45.040Z,2.70
2018-09-12T08:51:56.072Z,4.33
2018-09-12T08:55:07.821Z,3.33
2018-09-12T08:58:18.747Z,2.50
2018-09-12T09:01:29.700Z,3.23
2018-09-12T09:04:41.350Z,3.10
2018-09-12T09:07:52.539Z,3.73
2018-09-12T09:11:05.292Z,4.00
2018-09-12T09:14:16.520Z,3.20
2018-09-12T09:17:27.950Z,3.40
2018-09-12T09:20:39.313Z,4.13
2018-09-12T09:23:50.057Z,3.67
2018-09-12T09:27:01.123Z,3.47
2018-09-12T09:30:12.794Z,2.93
2018-09-12T09:33:24.084Z,3.23
2018-09-12T09:36:34.923Z,3.23
2018-09-12T09:39:45.790Z,3.23
2018-09-12T09:42:56.882Z,4.83
2018-09-12T09:46:08.756Z,3.00
2018-09-12T09:49:19.538Z,4.07
2018-09-12T09:52:30.838Z,4.93
2018-09-12T09:55:42.187Z,3.60
2018-09-12T09:58:53.825Z,4.33
2018-09-12T10:02:10.192Z,4.57
2018-09-12T10:05:25.914Z,3.83
2018-09-12T10:08:42.100Z,3.13
2018-09-12T10:11:53.670Z,4.30
2018-09-12T10:15:05.954Z,4.10
2018-09-12T10:18:16.788Z,4.27
2018-09-12T10:21:28.542Z,3.60
2018-09-12T10:24:39.469Z,5.70
2018-09-12T10:27:50.565Z,4.17
2018-09-12T10:31:01.579Z,3.40
2018-09-12T10:34:13.206Z,3.83
2018-09-12T10:37:24.237Z,4.63
2018-09-12T10:40:34.984Z,4.63
2018-09-12T10:43:46.169Z,3.53
2018-09-12T10:46:57.193Z,3.77
2018-09-12T10:50:09.036Z,3.70
2018-09-12T10:53:19.786Z,3.77
2018-09-12T10:56:30.679Z,4.23
2018-09-12T10:59:42.016Z,3.10
2018-09-12T11:02:53.023Z,3.53
2018-09-12T11:06:04.084Z,4.27
2018-09-12T11:09:15.677Z,4.80
2018-09-12T11:12:26.871Z,4.00
2018-09-12T11:15:38.880Z,3.30
2018-09-12T11:18:50.398Z,2.70
2018-09-12T11:22:01.753Z,3.97
2018-09-12T11:25:12.514Z,3.70
2018-09-12T11:28:23.552Z,3.47
2018-09-12T11:31:34.497Z,3.63
2018-09-12T11:34:45.845Z,3.00
2018-09-12T11:37:57.161Z,3.87
2018-09-12T11:41:08.614Z,4.00
2018-09-12T11:44:20.305Z,3.00
2018-09-12T11:47:31.648Z,3.77
2018-09-12T11:50:42.792Z,3.30
2018-09-12T11:53:54.267Z,3.70
2018-09-12T11:57:05.666Z,3.90
2018-09-12T12:00:16.680Z,3.60
2018-09-12T12:03:28.232Z,3.13
2018-09-12T12:06:40.343Z,4.83
2018-09-12T12:09:51.569Z,3.63
2018-09-12T12:13:02.538Z,3.70
2018-09-12T12:16:13.805Z,2.83
2018-09-12T12:19:24.934Z,4.50
2018-09-12T12:22:36.572Z,3.00
2018-09-12T12:25:47.922Z,2.93
2018-09-12T12:28:58.907Z,4.50
2018-09-12T12:32:10.170Z,2.43
2018-09-12T12:35:22.036Z,2.40
2018-09-12T12:38:33.201Z,3.73
2018-09-12T12:41:44.071Z,3.20
2018-09-12T12:44:55.166Z,2.97
2018-09-12T12:48:06.437Z,3.83
2018-09-12T12:51:17.557Z,4.00
2018-09-12T12:54:28.703Z,4.60
2018-09-12T12:57:39.790Z,4.43
2018-09-12T13:00:50.723Z,3.00
2018-09-12T13:04:01.863Z,3.70
2018-09-12T13:07:13.014Z,3.07
2018-09-12T13:10:24.304Z,3.70
2018-09-12T13:13:35.196Z,3.70
2018-09-12T13:16:46.196Z,4.53
2018-09-12T13:19:57.494Z,4.37
2018-09-12T13:23:08.929Z,3.70
2018-09-12T13:26:20.216Z,4.00
2018-09-12T13:29:31.734Z,3.50
2018-09-12T13:32:42.676Z,4.17
2018-09-12T13:35:53.841Z,2.87
2018-09-12T13:39:11.423Z,3.40
2018-09-12T13:42:23.093Z,3.70
2018-09-12T13:45:34.578Z,3.40
2018-09-12T13:48:45.916Z,3.03
2018-09-12T13:51:57.025Z,3.53
2018-09-12T13:55:08.036Z,3.93
2018-09-12T13:58:18.826Z,2.70
2018-09-12T14:01:29.972Z,3.70
2018-09-12T14:04:41.575Z,3.90
2018-09-12T14:07:53.157Z,3.57
2018-09-12T14:11:04.556Z,4.07
2018-09-12T14:14:15.323Z,3.70
2018-09-12T14:17:26.610Z,3.63
2018-09-12T14:20:37.817Z,3.60
2018-09-12T14:23:49.169Z,3.50
2018-09-12T14:27:00.368Z,4.47
2018-09-12T14:30:11.412Z,4.50
2018-09-12T14:33:22.412Z,3.90
2018-09-12T14:36:33.178Z,2.97
2018-09-12T14:39:44.911Z,2.30
2018-09-12T14:42:56.255Z,3.60
2018-09-12T14:46:08.007Z,4.13
2018-09-12T14:49:18.774Z,4.37
2018-09-12T14:52:30.305Z,4.57
2018-09-12T14:55:41.636Z,4.60
2018-09-12T14:58:52.697Z,4.57
2018-09-12T15:02:04.171Z,4.73
2018-09-12T15:05:14.942Z,4.10
2018-09-12T15:08:26.466Z,2.90
2018-09-12T15:11:37.747Z,5.00
2018-09-12T15:14:49.491Z,3.40
2018-09-12T15:18:00.529Z,3.83
2018-09-12T15:21:12.166Z,4.17
2018-09-12T15:24:23.796Z,5.17
2018-09-12T15:27:35.113Z,4.53
2018-09-12T15:30:46.512Z,4.63
2018-09-12T15:33:57.341Z,4.10
2018-09-12T15:37:08.667Z,3.80
2018-09-12T15:40:19.792Z,4.23
2018-09-12T15:43:31.066Z,3.60
2018-09-12T15:46:42.018Z,3.17
2018-09-12T15:49:53.239Z,3.30
2018-09-12T15:53:03.977Z,3.63
2018-09-12T15:56:15.078Z,3.30
2018-09-12T15:59:25.868Z,5.03
2018-09-12T16:02:36.969Z,5.53
2018-09-12T16:05:48.252Z,4.70
2018-09-12T16:08:59.853Z,3.83
2018-09-12T16:12:10.851Z,3.73
2018-09-12T16:15:21.697Z,4.30
2018-09-12T16:18:32.887Z,4.50
2018-09-12T16:21:44.117Z,3.10
2018-09-12T16:24:55.963Z,3.17
2018-09-12T16:28:07.679Z,4.30
2018-09-12T16:31:19.133Z,3.70
2018-09-12T16:34:30.462Z,3.73
2018-09-12T16:37:41.803Z,3.80
2018-09-12T16:40:52.669Z,3.93
2018-09-12T16:44:04.498Z,3.80
2018-09-12T16:47:16.274Z,2.93
2018-09-12T16:50:27.283Z,3.90
2018-09-12T16:53:38.602Z,3.40
2018-09-12T16:56:49.941Z,3.60
2018-09-12T17:00:02.654Z,3.77
2018-09-12T17:03:13.979Z,4.37
2018-09-12T17:06:25.371Z,3.03
2018-09-12T17:09:36.463Z,3.60
2018-09-12T17:12:47.758Z,3.23
2018-09-12T17:15:59.250Z,3.23
2018-09-12T17:19:10.494Z,4.67
2018-09-12T17:22:21.819Z,3.40
2018-09-12T17:25:33.284Z,3.43
2018-09-12T17:28:44.649Z,3.40
2018-09-12T17:31:55.950Z,3.23
2018-09-12T17:35:08.077Z,3.10
2018-09-12T17:38:19.500Z,4.13
2018-09-12T17:41:30.447Z,4.20
2018-09-12T17:44:42.214Z,4.03
2018-09-12T17:47:53.659Z,4.80
2018-09-12T17:51:04.512Z,3.87
2018-09-12T17:54:16.137Z,4.00
2018-09-12T17:57:27.298Z,26.43
2018-09-12T18:00:38.610Z,14.13
2018-09-12T18:03:51.320Z,6.33
2018-09-12T18:07:02.939Z,5.20
2018-09-12T18:10:14.008Z,4.40
2018-09-12T18:13:25.057Z,5.60
2018-09-12T18:16:36.062Z,6.30
2018-09-12T18:19:47.344Z,4.73
2018-09-12T18:22:58.617Z,4.43
2018-09-12T18:26:10.004Z,5.00
2018-09-12T18:29:22.127Z,4.50
2018-09-12T18:32:33.061Z,5.73
2018-09-12T18:35:44.225Z,5.23
2018-09-12T18:38:54.964Z,6.50
2018-09-12T18:42:06.121Z,5.60
2018-09-12T18:45:16.911Z,4.60
2018-09-12T18:48:28.387Z,6.00
2018-09-12T18:51:39.714Z,6.87
2018-09-12T18:54:50.624Z,5.70
2018-09-12T18:58:02.088Z,5.47
2018-09-12T19:01:12.941Z,5.10
2018-09-12T19:04:24.570Z,9.00
2018-09-12T19:07:36.356Z,5.47
2018-09-12T19:10:47.490Z,5.72
2018-09-12T19:13:58.585Z,7.20
2018-09-12T19:17:10.529Z,6.53
2018-09-12T19:20:22.411Z,4.53
2018-09-12T19:23:33.549Z,4.30
2018-09-12T19:26:45.420Z,4.33
2018-09-12T19:29:57.195Z,6.25
2018-09-12T19:33:08.375Z,9.58
2018-09-12T19:36:20.079Z,6.58
2018-09-12T19:39:32.603Z,6.03
2018-09-12T19:42:44.558Z,7.08
2018-09-12T19:45:55.644Z,5.60
2018-09-12T19:49:07.642Z,9.03
2018-09-12T19:52:18.800Z,6.65
2018-09-12T19:55:30.005Z,6.15
2018-09-12T19:58:41.682Z,6.15
2018-09-12T20:01:53.308Z,5.20
2018-09-12T20:05:05.405Z,6.05
2018-09-12T20:08:16.460Z,5.20
2018-09-12T20:11:28.206Z,6.65
2018-09-12T20:14:40.089Z,6.42
2018-09-12T20:17:51.951Z,5.92
2018-09-12T20:21:04.052Z,6.47
2018-09-12T20:24:15.423Z,5.45
2018-09-12T20:27:27.328Z,6.03
2018-09-12T20:30:38.725Z,6.35
2018-09-12T20:33:50.636Z,9.20
2018-09-12T20:37:02.009Z,6.53
2018-09-12T20:40:13.180Z,7.92
2018-09-12T20:43:25.138Z,6.20
2018-09-12T20:46:36.432Z,7.33
2018-09-12T20:49:47.500Z,8.35
2018-09-12T20:52:59.105Z,5.50
2018-09-12T20:56:10.579Z,6.53
2018-09-12T20:59:21.979Z,7.30
2018-09-12T21:02:33.281Z,6.75
2018-09-12T21:05:45.181Z,9.15
2018-09-12T21:08:56.807Z,7.78
2018-09-12T21:12:08.199Z,7.95
2018-09-12T21:15:20.026Z,7.12
2018-09-12T21:18:31.161Z,8.70
2018-09-12T21:21:42.369Z,6.90
2018-09-12T21:24:54.242Z,8.53
2018-09-12T21:28:05.497Z,9.60
2018-09-12T21:31:17.287Z,8.30
2018-09-12T21:34:28.410Z,8.28
2018-09-12T21:37:39.431Z,6.42
2018-09-12T21:40:50.780Z,8.10
2018-09-12T21:44:02.764Z,8.30
2018-09-12T21:47:14.090Z,7.92
2018-09-12T21:50:25.237Z,6.92
2018-09-12T21:53:36.462Z,7.00
2018-09-12T21:56:49.321Z,8.25
2018-09-12T22:00:00.852Z,8.08
2018-09-12T22:03:12.261Z,8.63
2018-09-12T22:06:24.185Z,6.47
2018-09-12T22:09:35.804Z,9.53
2018-09-12T22:12:47.748Z,9.63
2018-09-12T22:15:59.100Z,9.13
2018-09-12T22:19:11.073Z,8.28
2018-09-12T22:22:22.451Z,7.30
2018-09-12T22:25:34.071Z,8.45
2018-09-12T22:28:46.265Z,8.45
2018-09-12T22:31:58.176Z,7.37
2018-09-12T22:35:09.921Z,11.00
2018-09-12T22:38:21.292Z,8.20
2018-09-12T22:41:32.353Z,9.60
2018-09-12T22:44:43.930Z,8.75
2018-09-12T22:47:55.823Z,9.28
2018-09-12T22:51:07.282Z,8.45
2018-09-12T22:54:18.539Z,6.83
2018-09-12T22:57:30.139Z,8.65
2018-09-12T23:00:41.920Z,8.80
2018-09-12T23:03:53.204Z,8.53
2018-09-12T23:07:04.685Z,9.75
2018-09-12T23:10:16.097Z,9.73
2018-09-12T23:13:27.505Z,9.55
2018-09-12T23:16:39.625Z,8.68
2018-09-12T23:19:51.566Z,8.03
2018-09-12T23:23:02.888Z,9.45
2018-09-12T23:26:14.507Z,9.85
2018-09-12T23:29:26.264Z,9.30
2018-09-12T23:32:37.250Z,9.53
2018-09-12T23:35:48.659Z,10.50
2018-09-12T23:38:59.628Z,11.40
2018-09-12T23:42:11.496Z,9.35
2018-09-12T23:45:23.233Z,7.12
2018-09-12T23:48:34.453Z,7.87
2018-09-12T23:51:45.648Z,7.78
2018-09-12T23:54:57.202Z,8.03
2018-09-12T23:58:08.746Z,9.58
